Time;durP1;ratioP1;P1;durP2;ratioP2;P2;SDS_P1;SDS_P2;PMS_P1;PMS_P2;Temp;Humidity;BMP_temperature;BMP_pressure;BME280_temperature;BME280_humidity;BME280_pressure;Samples;Min_cycle;Max_cycle;Signal;HPM_P1;HPM_P2
2023/09/07 00:01:18;;;;;;;4.20;2.00;;;19.10;99.90;;;;;;5091975;28;20115;-78
2023/09/07 00:03:44;;;;;;;2.58;1.60;;;19.10;99.90;;;;;;5092036;28;20099;-77
2023/09/07 00:06:09;;;;;;;2.83;1.42;;;19.20;99.90;;;;;;5092286;28;20032;-78
2023/09/07 00:08:35;;;;;;;3.25;1.30;;;19.30;99.90;;;;;;5091649;28;20032;-79
2023/09/07 00:11:05;;;;;;;6.22;1.40;;;19.30;99.90;;;;;;5092278;28;20341;-78
2023/09/07 00:13:32;;;;;;;4.63;1.40;;;19.40;99.90;;;;;;5091594;28;20050;-78
2023/09/07 00:16:04;;;;;;;2.70;0.98;;;19.50;99.90;;;;;;5092084;28;20028;-78
2023/09/07 00:18:31;;;;;;;3.55;1.33;;;19.60;99.90;;;;;;5090855;28;20077;-78
2023/09/07 00:20:56;;;;;;;4.40;1.23;;;19.70;99.90;;;;;;5092000;28;20031;-78
2023/09/07 00:23:22;;;;;;;5.85;1.60;;;19.70;99.90;;;;;;5090804;28;20103;-78
2023/09/07 00:25:48;;;;;;;1.77;1.00;;;19.80;99.90;;;;;;5091817;28;20024;-78
2023/09/07 00:28:14;;;;;;;2.38;0.98;;;19.80;99.90;;;;;;5091477;28;20123;-78
2023/09/07 00:30:40;;;;;;;3.55;1.42;;;19.90;99.90;;;;;;5091460;28;20492;-79
2023/09/07 00:33:06;;;;;;;2.95;1.25;;;19.90;99.90;;;;;;5090993;28;20063;-79
2023/09/07 00:35:32;;;;;;;2.95;1.38;;;19.90;99.90;;;;;;5091238;28;20096;-79
2023/09/07 00:37:57;;;;;;;3.78;1.20;;;19.90;99.90;;;;;;5091426;28;20039;-80
2023/09/07 00:40:23;;;;;;;3.65;1.20;;;19.90;99.90;;;;;;5091381;28;20032;-78
2023/09/07 00:42:49;;;;;;;3.67;1.25;;;19.90;99.90;;;;;;5091928;28;20035;-78
2023/09/07 00:45:15;;;;;;;2.65;1.25;;;20.00;99.90;;;;;;5091577;28;20114;-78
2023/09/07 00:47:41;;;;;;;2.35;1.30;;;20.00;99.90;;;;;;5091191;28;20058;-79
2023/09/07 00:50:07;;;;;;;3.33;1.25;;;20.00;99.90;;;;;;5091489;28;20325;-79
2023/09/07 00:52:34;;;;;;;3.95;1.40;;;20.10;99.90;;;;;;5090835;28;20032;-79
2023/09/07 00:55:02;;;;;;;3.33;1.33;;;20.10;99.90;;;;;;5091324;28;20032;-79
2023/09/07 00:57:27;;;;;;;2.72;1.20;;;20.10;99.90;;;;;;5090671;28;20064;-79
2023/09/07 00:59:54;;;;;;;2.75;1.20;;;20.10;99.90;;;;;;5091237;28;20050;-79
2023/09/07 01:02:20;;;;;;;2.17;0.95;;;20.10;99.90;;;;;;5090900;28;20078;-79
2023/09/07 01:04:45;;;;;;;2.22;1.02;;;20.20;99.90;;;;;;5091303;28;20461;-79
2023/09/07 01:07:36;;;;;;;5.32;1.63;;;20.20;99.90;;;;;;5091296;28;20081;-79
2023/09/07 01:10:02;;;;;;;4.13;1.65;;;20.10;99.90;;;;;;5091096;28;20509;-79
2023/09/07 01:12:28;;;;;;;3.95;1.30;;;20.10;99.90;;;;;;5090741;28;20024;-79
2023/09/07 01:14:54;;;;;;;4.78;1.60;;;20.10;99.90;;;;;;5090789;28;20050;-79
2023/09/07 01:17:24;;;;;;;3.97;1.55;;;20.10;99.90;;;;;;5090787;28;20127;-79
2023/09/07 01:19:50;;;;;;;3.58;1.40;;;20.00;99.90;;;;;;5091616;28;20036;-79
2023/09/07 01:22:18;;;;;;;5.82;1.90;;;20.00;99.90;;;;;;5091101;28;20020;-79
2023/09/07 01:24:46;;;;;;;3.50;1.70;;;19.90;99.90;;;;;;5091376;28;20020;-79
2023/09/07 01:27:13;;;;;;;4.00;1.60;;;19.90;99.90;;;;;;5091677;28;20047;-79
2023/09/07 01:29:39;;;;;;;2.90;1.50;;;19.90;99.90;;;;;;5090695;28;20535;-78
2023/09/07 01:32:06;;;;;;;2.90;1.25;;;19.90;99.90;;;;;;5091638;28;20113;-79
2023/09/07 01:34:32;;;;;;;4.60;1.75;;;19.90;99.90;;;;;;5091054;28;20032;-79
2023/09/07 01:36:57;;;;;;;2.25;1.38;;;19.90;99.90;;;;;;5091306;28;20028;-79
2023/09/07 01:39:23;;;;;;;1.90;1.02;;;19.80;99.90;;;;;;5091510;28;20475;-78
2023/09/07 01:41:49;;;;;;;5.10;2.10;;;19.80;99.90;;;;;;5091107;28;20024;-79
2023/09/07 01:44:15;;;;;;;1.48;1.35;;;19.80;99.90;;;;;;5090998;28;20095;-78
2023/09/07 01:46:40;;;;;;;1.35;1.13;;;19.80;99.90;;;;;;5090353;28;20024;-78
2023/09/07 01:49:06;;;;;;;3.03;1.60;;;19.80;99.90;;;;;;5090844;28;20059;-78
2023/09/07 01:51:32;;;;;;;3.83;1.20;;;19.70;99.90;;;;;;5090276;28;20081;-78
2023/09/07 01:53:57;;;;;;;4.00;1.63;;;19.70;99.90;;;;;;5090424;28;20028;-78
2023/09/07 01:56:23;;;;;;;4.22;1.80;;;19.70;99.90;;;;;;5090366;28;20062;-78
2023/09/07 01:58:49;;;;;;;4.63;1.80;;;19.60;99.90;;;;;;5090530;28;20096;-78
2023/09/07 02:01:21;;;;;;;7.30;2.47;;;19.60;99.90;;;;;;5090520;28;20509;-78
2023/09/07 02:03:47;;;;;;;;;;;19.60;99.90;;;;;;5090650;28;20024;-78
2023/09/07 02:06:13;;;;;;;6.00;2.88;;;19.60;99.90;;;;;;5090294;28;19911;-78
2023/09/07 02:08:39;;;;;;;6.97;2.45;;;19.70;99.90;;;;;;5089339;28;20032;-78
2023/09/07 02:11:05;;;;;;;9.90;3.20;;;19.70;99.90;;;;;;5090313;28;20457;-78
2023/09/07 02:13:31;;;;;;;7.82;2.92;;;19.70;99.90;;;;;;5089854;28;20147;-78
2023/09/07 02:15:57;;;;;;;3.92;2.53;;;19.70;99.90;;;;;;5090324;28;20156;-78
2023/09/07 02:18:23;;;;;;;8.32;3.13;;;19.70;99.90;;;;;;5089661;28;20032;-78
2023/09/07 02:20:48;;;;;;;5.35;2.90;;;19.70;99.90;;;;;;5090203;28;20024;-78
2023/09/07 02:23:14;;;;;;;7.53;3.05;;;19.70;99.90;;;;;;5090064;28;20377;-78
2023/09/07 02:25:41;;;;;;;7.20;3.75;;;19.70;99.90;;;;;;5089485;28;20056;-78
2023/09/07 02:28:06;;;;;;;5.60;2.78;;;19.70;99.90;;;;;;5090055;28;20036;-78
2023/09/07 02:30:32;;;;;;;6.63;2.65;;;19.70;99.90;;;;;;5089333;28;20027;-77
2023/09/07 02:32:58;;;;;;;5.03;2.28;;;19.70;99.90;;;;;;5090333;28;20030;-79
2023/09/07 02:35:24;;;;;;;8.57;3.58;;;19.60;99.90;;;;;;5090040;28;20032;-79
2023/09/07 02:37:49;;;;;;;5.90;2.97;;;19.60;99.90;;;;;;5071655;28;20047;-77
2023/09/07 02:40:18;;;;;;;6.68;2.80;;;19.60;99.90;;;;;;5089856;28;20031;-79
2023/09/07 02:42:44;;;;;;;5.35;3.25;;;19.60;99.90;;;;;;5089291;28;20028;-78
2023/09/07 02:45:12;;;;;;;6.75;2.58;;;19.60;99.90;;;;;;5089995;28;20136;-78
2023/09/07 02:47:39;;;;;;;8.63;3.30;;;19.50;99.90;;;;;;5089471;28;20373;-78
2023/09/07 02:50:05;;;;;;;6.47;2.80;;;19.50;99.90;;;;;;5090066;28;20173;-78
2023/09/07 02:52:31;;;;;;;3.85;2.90;;;19.50;99.90;;;;;;5089361;28;20024;-79
2023/09/07 02:54:56;;;;;;;3.97;2.78;;;19.50;99.90;;;;;;5090053;28;20062;-77
2023/09/07 02:57:22;;;;;;;5.55;2.65;;;19.50;99.90;;;;;;5071817;28;20119;-78
2023/09/07 02:59:48;;;;;;;6.30;2.30;;;19.50;99.90;;;;;;5089193;28;20499;-77
2023/09/07 03:02:14;;;;;;;5.97;2.70;;;19.50;99.90;;;;;;5089909;28;20031;-78
2023/09/07 03:04:39;;;;;;;4.68;2.60;;;19.50;99.90;;;;;;5089200;28;20028;-78
2023/09/07 03:07:05;;;;;;;4.75;2.83;;;19.40;99.90;;;;;;5089660;28;20035;-78
2023/09/07 03:09:31;;;;;;;4.55;2.67;;;19.40;99.90;;;;;;5089415;28;20028;-78
2023/09/07 03:11:56;;;;;;;6.25;3.53;;;19.40;99.90;;;;;;5089777;28;20024;-78
2023/09/07 03:14:22;;;;;;;6.30;3.10;;;19.40;99.90;;;;;;5089890;28;20373;-78
2023/09/07 03:16:50;;;;;;;6.60;3.50;;;19.30;99.90;;;;;;5089206;28;20028;-79
2023/09/07 03:19:15;;;;;;;5.90;3.33;;;19.30;99.90;;;;;;5090151;28;20028;-78
2023/09/07 03:21:41;;;;;;;7.32;3.60;;;19.20;99.90;;;;;;5092930;28;20047;-79
2023/09/07 03:24:07;;;;;;;10.13;3.75;;;19.20;99.90;;;;;;5075152;28;20038;-78
2023/09/07 03:26:33;;;;;;;7.47;3.47;;;19.10;99.90;;;;;;5092977;28;20028;-78
2023/09/07 03:28:58;;;;;;;6.85;3.40;;;19.00;99.90;;;;;;5075220;28;20140;-78
2023/09/07 03:31:24;;;;;;;6.60;3.45;;;18.90;99.90;;;;;;5093182;28;20024;-78
2023/09/07 03:33:50;;;;;;;7.88;3.95;;;18.80;99.90;;;;;;5092877;28;20158;-78
2023/09/07 03:36:16;;;;;;;7.47;3.72;;;18.80;99.90;;;;;;5093176;28;20471;-78
2023/09/07 03:38:43;;;;;;;4.93;2.90;;;18.70;99.90;;;;;;5092720;28;20119;-77
2023/09/07 03:41:08;;;;;;;8.45;3.45;;;18.60;99.90;;;;;;5093211;28;20039;-78
2023/09/07 03:43:34;;;;;;;5.68;3.30;;;18.60;99.90;;;;;;5092893;28;20377;-77
2023/09/07 03:46:00;;;;;;;11.48;3.80;;;18.50;99.90;;;;;;5093600;28;20052;-77
2023/09/07 03:48:25;;;;;;;9.50;4.00;;;18.50;99.90;;;;;;5093098;28;20064;-78
2023/09/07 03:50:51;;;;;;;9.30;4.10;;;18.40;99.90;;;;;;5092446;28;20028;-78
2023/09/07 03:53:17;;;;;;;10.15;3.97;;;18.40;99.90;;;;;;5092740;28;20571;-78
2023/09/07 03:55:44;;;;;;;6.38;3.13;;;18.40;99.90;;;;;;5092131;28;20119;-79
2023/09/07 03:58:11;;;;;;;9.80;3.90;;;18.30;99.90;;;;;;5093124;28;20032;-78
2023/09/07 04:00:43;;;;;;;6.20;3.22;;;18.30;99.90;;;;;;5092310;28;20030;-78
2023/09/07 04:03:09;;;;;;;6.13;3.40;;;18.30;99.90;;;;;;5093092;28;20050;-79
2023/09/07 04:05:38;;;;;;;9.13;3.72;;;18.30;99.90;;;;;;5092331;28;20103;-78
2023/09/07 04:08:04;;;;;;;11.05;4.40;;;18.30;99.90;;;;;;5092656;28;20078;-78
2023/09/07 04:10:30;;;;;;;6.35;3.70;;;18.20;99.90;;;;;;5092675;28;20028;-78
2023/09/07 04:12:55;;;;;;;9.55;4.57;;;18.20;99.90;;;;;;5073893;28;20057;-79
2023/09/07 04:15:21;;;;;;;6.68;3.90;;;18.20;99.90;;;;;;5092412;28;20426;-78
2023/09/07 04:17:47;;;;;;;8.82;4.18;;;18.20;99.90;;;;;;5091890;28;20036;-78
2023/09/07 04:20:12;;;;;;;7.20;3.67;;;18.20;99.90;;;;;;5092523;28;20016;-78
2023/09/07 04:22:41;;;;;;;8.27;3.67;;;18.10;99.90;;;;;;5091434;28;20469;-78
2023/09/07 04:25:07;;;;;;;12.40;4.72;;;18.10;99.90;;;;;;5092527;28;20031;-78
2023/09/07 04:27:33;;;;;;;10.30;4.40;;;18.10;99.90;;;;;;5091681;28;20118;-78
2023/09/07 04:29:58;;;;;;;8.02;3.72;;;18.10;99.90;;;;;;5092036;28;20103;-78
2023/09/07 04:32:24;;;;;;;13.20;4.65;;;18.10;99.90;;;;;;5091041;28;20035;-78
2023/09/07 04:34:56;;;;;;;12.95;4.85;;;18.10;99.90;;;;;;5091409;28;20035;-78
2023/09/07 04:37:23;;;;;;;11.38;4.90;;;18.10;99.90;;;;;;5092105;28;20032;-78
2023/09/07 04:39:53;;;;;;;7.85;4.70;;;18.00;99.90;;;;;;5091953;28;20028;-79
2023/09/07 04:42:19;;;;;;;8.18;4.10;;;18.00;99.90;;;;;;5092030;28;20028;-78
2023/09/07 04:44:46;;;;;;;9.25;4.75;;;18.10;99.90;;;;;;5091583;28;20407;-78
2023/09/07 04:47:12;;;;;;;7.43;4.38;;;18.10;99.90;;;;;;5092150;28;20097;-78
2023/09/07 04:49:38;;;;;;;7.18;4.35;;;18.10;99.90;;;;;;5091565;28;20055;-77
2023/09/07 04:52:04;;;;;;;10.60;5.65;;;18.10;99.90;;;;;;5092136;28;20028;-78
2023/09/07 04:54:30;;;;;;;14.45;6.40;;;18.10;99.90;;;;;;5091988;28;20102;-77
2023/09/07 04:56:55;;;;;;;6.57;4.22;;;18.00;99.90;;;;;;5090898;28;20040;-77
2023/09/07 04:59:21;;;;;;;10.52;5.90;;;18.00;99.90;;;;;;5091787;28;20457;-77
2023/09/07 05:01:47;;;;;;;9.10;5.15;;;18.00;99.90;;;;;;5091132;28;20062;-77
2023/09/07 05:04:12;;;;;;;10.85;5.20;;;18.00;99.90;;;;;;5091604;28;20065;-77
2023/09/07 05:06:40;;;;;;;9.35;5.22;;;18.00;99.90;;;;;;5091195;28;20085;-78
2023/09/07 05:09:06;;;;;;;7.28;4.38;;;17.90;99.90;;;;;;5091731;28;20476;-78
2023/09/07 05:11:34;;;;;;;9.85;5.07;;;17.90;99.90;;;;;;5091806;28;20066;-77
2023/09/07 05:14:01;;;;;;;12.15;5.00;;;17.90;99.90;;;;;;5091042;28;20032;-77
2023/09/07 05:16:27;;;;;;;15.40;5.90;;;17.90;99.90;;;;;;5091391;28;20031;-77
2023/09/07 05:18:53;;;;;;;11.07;6.88;;;17.80;99.90;;;;;;5090906;28;20867;-78
2023/09/07 05:21:19;;;;;;;11.02;6.30;;;17.80;99.90;;;;;;5091057;28;20020;-77
2023/09/07 05:23:44;;;;;;;10.45;5.13;;;17.80;99.90;;;;;;5090770;28;20070;-77
2023/09/07 05:26:10;;;;;;;10.88;4.95;;;17.80;99.90;;;;;;5091380;28;20024;-77
2023/09/07 05:28:36;;;;;;;9.48;4.90;;;17.70;99.90;;;;;;5091290;28;20028;-78
2023/09/07 05:31:01;;;;;;;7.63;4.50;;;17.70;99.90;;;;;;5091732;28;20024;-78
2023/09/07 05:33:27;;;;;;;15.52;5.57;;;17.70;99.90;;;;;;5091143;28;20130;-78
2023/09/07 05:35:53;;;;;;;6.93;4.20;;;17.70;99.90;;;;;;5090844;28;20069;-78
2023/09/07 05:38:19;;;;;;;12.20;7.13;;;17.80;99.90;;;;;;5090795;28;20365;-78
2023/09/07 05:40:46;;;;;;;8.32;5.03;;;17.80;99.90;;;;;;5090310;28;20030;-78
2023/09/07 05:43:12;;;;;;;11.32;5.78;;;17.80;99.90;;;;;;5089837;28;20103;-79
2023/09/07 05:45:40;;;;;;;10.65;6.20;;;17.90;99.90;;;;;;5090538;28;20167;-78
2023/09/07 05:48:07;;;;;;;9.13;5.25;;;17.90;99.90;;;;;;5090619;28;20041;-79
2023/09/07 05:50:35;;;;;;;12.65;8.10;;;18.00;99.90;;;;;;5091115;28;20032;-79
2023/09/07 05:53:01;;;;;;;10.30;6.15;;;18.00;99.90;;;;;;5090412;28;20024;-78
2023/09/07 05:55:27;;;;;;;17.02;7.07;;;18.10;99.90;;;;;;5090427;28;20477;-78
2023/09/07 05:57:55;;;;;;;13.18;6.43;;;18.10;99.90;;;;;;5089902;28;20111;-78
2023/09/07 06:00:21;;;;;;;15.02;7.68;;;18.10;99.90;;;;;;5090636;28;20032;-78
2023/09/07 06:02:47;;;;;;;17.50;8.65;;;18.10;99.90;;;;;;5090081;28;20345;-77
2023/09/07 06:05:13;;;;;;;12.90;6.95;;;18.10;99.90;;;;;;5090102;28;20024;-77
2023/09/07 06:07:39;;;;;;;14.63;7.30;;;18.10;99.90;;;;;;5071822;28;20468;-77
2023/09/07 06:10:05;;;;;;;11.02;6.30;;;18.20;99.90;;;;;;5090230;28;20051;-78
2023/09/07 06:12:32;;;;;;;14.90;8.23;;;18.20;99.90;;;;;;5090325;28;20149;-78
2023/09/07 06:14:58;;;;;;;10.63;7.05;;;18.20;99.90;;;;;;5089867;28;20612;-78
2023/09/07 06:17:23;;;;;;;22.52;10.40;;;18.20;99.90;;;;;;5090374;28;20115;-77
2023/09/07 06:19:49;;;;;;;19.08;11.75;;;18.30;99.90;;;;;;5071560;28;20413;-78
2023/09/07 06:22:15;;;;;;;29.92;12.93;;;18.30;99.90;;;;;;5090483;28;20081;-78
2023/09/07 06:24:40;;;;;;;20.10;12.55;;;18.30;99.90;;;;;;5089598;28;20063;-78
2023/09/07 06:27:06;;;;;;;22.88;12.38;;;18.30;99.90;;;;;;5090237;28;20429;-77
2023/09/07 06:29:32;;;;;;;16.83;9.20;;;18.30;99.90;;;;;;5090286;28;20032;-77
2023/09/07 06:31:58;;;;;;;13.40;8.18;;;18.30;99.90;;;;;;5089881;28;20064;-77
2023/09/07 06:34:24;;;;;;;14.07;7.63;;;18.40;99.90;;;;;;5090349;28;20115;-78
2023/09/07 06:36:50;;;;;;;22.90;12.95;;;18.50;99.90;;;;;;5089076;28;20131;-78
2023/09/07 06:39:15;;;;;;;18.27;10.35;;;18.50;99.90;;;;;;5072018;28;20107;-78
2023/09/07 06:41:41;;;;;;;23.05;12.07;;;18.60;99.90;;;;;;5089716;28;20036;-78
2023/09/07 06:44:07;;;;;;;17.70;10.50;;;18.60;99.90;;;;;;5090272;28;20030;-78
2023/09/07 06:46:33;;;;;;;19.20;10.77;;;18.60;99.90;;;;;;5090243;28;20048;-78
2023/09/07 06:48:59;;;;;;;21.58;12.43;;;18.70;99.90;;;;;;5089310;28;20061;-79
2023/09/07 06:51:24;;;;;;;21.52;12.25;;;18.80;99.90;;;;;;5090187;28;20507;-78
2023/09/07 06:53:50;;;;;;;25.08;13.40;;;18.80;99.90;;;;;;5089282;28;20044;-78
2023/09/07 06:56:16;;;;;;;14.07;9.43;;;18.90;99.90;;;;;;5093942;28;20131;-76
2023/09/07 06:58:41;;;;;;;22.67;12.30;;;18.90;99.90;;;;;;5092800;28;20503;-77
2023/09/07 07:01:07;;;;;;;13.95;8.55;;;19.00;99.90;;;;;;5075541;28;20031;-78
2023/09/07 07:03:34;;;;;;;14.60;8.65;;;19.10;99.90;;;;;;5093938;28;20024;-78
2023/09/07 07:06:00;;;;;;;20.00;9.57;;;19.10;99.90;;;;;;5093282;28;20136;-79
2023/09/07 07:08:25;;;;;;;15.95;9.68;;;19.10;99.90;;;;;;5093809;28;20085;-79
2023/09/07 07:10:51;;;;;;;19.48;10.48;;;19.20;99.90;;;;;;5093166;28;20020;-78
2023/09/07 07:13:17;;;;;;;17.98;9.20;;;19.20;99.90;;;;;;5093602;28;20074;-79
2023/09/07 07:15:42;;;;;;;19.95;12.35;;;19.10;99.90;;;;;;5093516;28;20119;-78
2023/09/07 07:18:09;;;;;;;17.80;10.48;;;19.10;99.90;;;;;;5093639;28;20060;-79
2023/09/07 07:20:38;;;;;;;23.92;11.82;;;19.10;99.90;;;;;;5093217;28;20036;-79
2023/09/07 07:23:06;;;;;;;17.45;10.55;;;19.10;99.90;;;;;;5093014;28;20089;-79
2023/09/07 07:25:33;;;;;;;19.98;12.35;;;19.10;99.90;;;;;;5093358;28;20020;-79
2023/09/07 07:28:05;;;;;;;17.23;9.10;;;19.00;99.90;;;;;;5092496;28;20032;-78
2023/09/07 07:30:40;;;;;;;21.17;12.70;;;19.10;99.90;;;;;;5093781;28;20028;-78
2023/09/07 07:33:06;;;;;;;17.88;10.57;;;19.10;99.90;;;;;;5093476;28;20398;-79
2023/09/07 07:35:35;;;;;;;19.98;10.75;;;19.10;99.90;;;;;;5093545;28;20486;-78
2023/09/07 07:38:03;;;;;;;22.77;11.45;;;19.20;99.90;;;;;;5093396;28;20036;-78
2023/09/07 07:40:29;;;;;;;22.02;11.55;;;19.20;99.90;;;;;;5093979;28;20089;-78
2023/09/07 07:42:55;;;;;;;23.25;11.15;;;19.20;99.90;;;;;;5093655;28;20120;-79
2023/09/07 07:45:21;;;;;;;14.98;8.93;;;19.30;99.90;;;;;;5094355;28;20050;-77
2023/09/07 07:47:49;;;;;;;15.73;11.23;;;19.40;99.90;;;;;;5093815;28;20435;-77
2023/09/07 07:50:15;;;;;;;23.30;10.70;;;19.50;99.90;;;;;;5093448;28;20016;-78
2023/09/07 07:52:41;;;;;;;25.17;11.52;;;19.60;99.90;;;;;;5093481;28;20035;-78
2023/09/07 07:55:08;;;;;;;25.58;11.13;;;19.60;99.90;;;;;;5092871;28;20058;-79
2023/09/07 07:57:33;;;;;;;22.00;10.57;;;19.70;99.90;;;;;;5095180;28;20170;-79
2023/09/07 07:59:59;;;;;;;19.70;10.30;;;19.70;99.90;;;;;;5094505;28;20126;-79
2023/09/07 08:02:25;;;;;;;19.25;9.55;;;19.80;99.90;;;;;;5093183;28;20127;-79
2023/09/07 08:04:50;;;;;;;15.73;9.10;;;19.90;99.90;;;;;;5092312;28;20030;-78
2023/09/07 08:07:16;;;;;;;24.67;11.52;;;19.90;99.90;;;;;;5091588;28;20024;-78
2023/09/07 08:09:42;;;;;;;20.75;9.85;;;19.90;99.90;;;;;;5092639;28;20032;-78
2023/09/07 08:12:08;;;;;;;28.92;11.40;;;19.90;99.90;;;;;;5092337;28;20063;-78
2023/09/07 08:14:35;;;;;;;21.80;9.40;;;19.90;99.90;;;;;;5092204;28;20482;-78
2023/09/07 08:17:01;;;;;;;16.88;8.80;;;20.00;99.90;;;;;;5092049;28;20032;-79
2023/09/07 08:19:30;;;;;;;16.77;10.52;;;20.10;99.90;;;;;;5092572;28;20047;-80
2023/09/07 08:21:58;;;;;;;20.90;10.55;;;20.10;99.90;;;;;;5091954;28;20031;-77
2023/09/07 08:24:24;;;;;;;23.10;11.13;;;20.10;99.90;;;;;;5092572;28;20024;-78
2023/09/07 08:26:50;;;;;;;28.80;10.07;;;20.30;99.90;;;;;;5092040;28;20385;-79
2023/09/07 08:29:17;;;;;;;25.45;10.48;;;20.30;99.90;;;;;;5092463;28;20047;-79
2023/09/07 08:31:45;;;;;;;20.38;10.32;;;20.40;99.90;;;;;;5092359;28;20028;-79
2023/09/07 08:34:11;;;;;;;17.92;8.15;;;20.40;99.90;;;;;;5091710;28;20357;-79
2023/09/07 08:36:37;;;;;;;22.25;8.48;;;20.50;99.90;;;;;;5092129;28;20032;-79
2023/09/07 08:39:12;;;;;;;21.83;9.10;;;20.50;99.90;;;;;;5091413;28;20032;-79
2023/09/07 08:41:43;;;;;;;29.50;10.73;;;20.50;99.90;;;;;;5092783;28;20093;-79
2023/09/07 08:44:10;;;;;;;12.98;8.52;;;20.60;99.90;;;;;;5091920;28;20046;-78
2023/09/07 08:46:37;;;;;;;18.08;8.30;;;20.70;99.90;;;;;;5091713;28;20105;-78
2023/09/07 08:49:04;;;;;;;23.85;9.18;;;20.70;99.90;;;;;;5091047;28;20028;-78
2023/09/07 08:51:31;;;;;;;20.10;8.80;;;20.70;99.90;;;;;;5072899;28;20082;-78
2023/09/07 08:54:00;;;;;;;19.10;8.48;;;20.70;99.90;;;;;;5090774;28;20122;-78
2023/09/07 08:56:26;;;;;;;22.92;8.98;;;20.80;99.90;;;;;;5091185;28;20161;-78
2023/09/07 08:58:52;;;;;;;19.60;8.68;;;20.80;99.90;;;;;;5090092;28;20032;-78
2023/09/07 09:01:20;;;;;;;23.33;9.80;;;20.70;99.90;;;;;;5091282;28;20073;-79
2023/09/07 09:03:48;;;;;;;22.52;9.82;;;20.60;99.90;;;;;;5091443;28;20051;-77
2023/09/07 09:06:18;;;;;;;16.83;9.25;;;20.60;99.90;;;;;;5090160;28;20020;-79
2023/09/07 09:08:49;;;;;;;28.00;9.45;;;20.60;99.90;;;;;;5091649;28;20428;-78
2023/09/07 09:11:16;;;;;;;27.83;9.40;;;20.70;99.90;;;;;;5091612;28;20038;-78
2023/09/07 09:13:42;;;;;;;24.50;9.43;;;20.60;99.90;;;;;;5091307;28;20068;-77
2023/09/07 09:16:09;;;;;;;21.98;8.90;;;20.70;99.90;;;;;;5090168;28;20212;-78
2023/09/07 09:18:35;;;;;;;17.27;8.20;;;20.60;99.90;;;;;;5089710;28;20039;-77
2023/09/07 09:21:00;;;;;;;23.67;9.55;;;20.70;99.90;;;;;;5090062;28;20035;-79
2023/09/07 09:23:37;;;;;;;19.50;8.38;;;20.80;99.90;;;;;;5071311;28;20152;-79
2023/09/07 09:26:05;;;;;;;15.93;8.10;;;20.80;99.90;;;;;;5088851;28;20032;-79
2023/09/07 09:28:31;;;;;;;21.48;8.75;;;20.80;99.90;;;;;;5089714;28;20113;-79
2023/09/07 09:31:02;;;;;;;20.00;7.95;;;20.90;99.90;;;;;;5088900;28;20035;-79
2023/09/07 09:33:30;;;;;;;23.95;8.10;;;21.00;99.90;;;;;;5089657;28;20122;-79
2023/09/07 09:35:57;;;;;;;27.83;9.02;;;21.10;99.90;;;;;;5087807;28;20046;-80
2023/09/07 09:38:26;;;;;;;16.00;8.05;;;21.30;99.90;;;;;;5071206;28;20085;-80
2023/09/07 09:40:52;;;;;;;22.23;8.65;;;21.40;99.90;;;;;;5087143;28;20111;-79
2023/09/07 09:43:21;;;;;;;19.83;8.02;;;21.50;99.90;;;;;;5089777;28;20077;-79
2023/09/07 09:45:50;;;;;;;22.50;8.57;;;21.60;99.90;;;;;;5088432;28;20071;-78
2023/09/07 09:48:16;;;;;;;15.75;8.15;;;21.70;99.90;;;;;;5104674;28;20035;-78
2023/09/07 09:50:44;;;;;;;24.30;8.43;;;21.70;99.90;;;;;;5088757;28;20027;-78
2023/09/07 09:53:15;;;;;;;18.92;7.10;;;21.60;99.90;;;;;;5088718;28;20255;-79
2023/09/07 09:55:41;;;;;;;19.20;7.55;;;21.70;99.90;;;;;;5088989;28;20036;-78
2023/09/07 09:58:07;;;;;;;19.92;7.40;;;21.80;99.90;;;;;;5088519;28;20036;-78
2023/09/07 10:00:37;;;;;;;13.02;7.55;;;21.80;99.90;;;;;;5089051;28;20405;-78
2023/09/07 10:03:12;;;;;;;14.38;7.13;;;21.90;99.90;;;;;;5089039;28;20096;-78
2023/09/07 10:05:38;;;;;;;19.92;8.68;;;21.90;99.90;;;;;;5071638;28;20346;-78
2023/09/07 10:08:09;;;;;;;25.77;8.50;;;22.00;99.90;;;;;;5088767;28;20039;-78
2023/09/07 10:10:37;;;;;;;24.08;7.93;;;22.10;99.90;;;;;;5089678;28;20020;-79
2023/09/07 10:13:03;;;;;;;21.38;8.75;;;22.20;99.90;;;;;;5089074;28;20036;-78
2023/09/07 10:15:30;;;;;;;32.53;8.85;;;22.40;99.90;;;;;;5089848;28;20032;-80
2023/09/07 10:18:15;;;;;;;23.10;8.52;;;22.60;99.90;;;;;;5088897;28;20032;-78
2023/09/07 10:20:51;;;;;;;16.60;7.63;;;22.70;99.90;;;;;;5089385;28;20111;-79
2023/09/07 10:23:18;;;;;;;19.25;7.68;;;22.90;99.90;;;;;;5089624;28;20460;-79
2023/09/07 10:25:49;;;;;;;20.75;8.20;;;23.00;99.90;;;;;;5089663;28;20494;-79
2023/09/07 10:28:32;;;;;;;20.58;9.77;;;23.10;99.90;;;;;;5088459;28;20362;-79
2023/09/07 10:31:14;;;;;;;21.83;8.38;;;23.20;99.90;;;;;;5092545;28;20131;-79
2023/09/07 10:33:40;;;;;;;17.90;7.65;;;23.30;99.90;;;;;;5093779;28;20338;-80
2023/09/07 10:36:06;;;;;;;22.27;8.32;;;23.40;99.90;;;;;;5093476;28;20020;-79
2023/09/07 10:38:33;;;;;;;16.00;7.00;;;23.40;99.90;;;;;;5093592;28;20032;-78
2023/09/07 10:41:02;;;;;;;20.00;7.78;;;23.50;99.90;;;;;;5093214;28;20032;-77
2023/09/07 10:43:30;;;;;;;15.55;8.10;;;23.50;99.90;;;;;;5093437;28;20119;-79
2023/09/07 10:45:56;;;;;;;15.63;7.47;;;23.50;99.90;;;;;;5108269;28;20040;-78
2023/09/07 10:48:23;;;;;;;25.27;8.45;;;23.40;99.90;;;;;;5093436;28;20177;-78
2023/09/07 10:50:51;;;;;;;24.25;8.38;;;23.40;99.90;;;;;;5093487;28;20028;-80
2023/09/07 10:53:28;;;;;;;18.65;7.57;;;23.30;99.90;;;;;;5092525;28;20028;-80
2023/09/07 10:55:55;;;;;;;18.70;7.90;;;23.20;99.90;;;;;;5074778;28;20446;-80
2023/09/07 10:58:33;;;;;;;16.23;8.25;;;23.10;99.90;;;;;;5093082;28;20047;-81
2023/09/07 11:00:59;;;;;;;17.30;7.70;;;23.00;99.90;;;;;;5092897;28;20024;-80
2023/09/07 11:03:27;;;;;;;15.60;8.00;;;23.00;99.90;;;;;;5108278;28;20024;-80
2023/09/07 11:06:00;;;;;;;16.98;8.15;;;23.00;99.90;;;;;;5057913;28;20329;-80
2023/09/07 11:08:26;;;;;;;14.07;7.97;;;23.00;99.90;;;;;;5093406;28;20028;-80
2023/09/07 11:10:52;;;;;;;16.52;7.43;;;23.00;99.90;;;;;;5093372;28;20461;-80
2023/09/07 11:13:18;;;;;;;16.88;7.40;;;23.00;99.90;;;;;;5092626;28;20050;-79
2023/09/07 11:15:44;;;;;;;18.80;8.30;;;23.10;99.90;;;;;;5093179;28;20449;-80
2023/09/07 11:18:09;;;;;;;19.80;8.45;;;23.00;99.90;;;;;;5092476;28;20094;-80
2023/09/07 11:20:36;;;;;;;14.23;7.15;;;23.00;99.90;;;;;;5092685;28;20024;-79
2023/09/07 11:23:03;;;;;;;20.55;7.82;;;23.00;99.90;;;;;;5092108;28;20482;-80
2023/09/07 11:25:36;;;;;;;15.23;7.18;;;23.00;99.90;;;;;;5093055;28;20444;-80
2023/09/07 11:28:03;;;;;;;17.02;7.85;;;23.00;99.90;;;;;;5092355;28;20169;-80
2023/09/07 11:30:29;;;;;;;16.92;7.85;;;23.00;99.90;;;;;;5092861;28;20437;-80
2023/09/07 11:33:22;;;;;;;16.85;7.60;;;23.00;99.90;;;;;;5092855;28;20051;-79
2023/09/07 11:35:48;;;;;;;13.95;7.22;;;23.10;99.90;;;;;;5089720;28;20032;-80
2023/09/07 11:38:15;;;;;;;14.00;6.90;;;23.20;99.90;;;;;;5091902;28;20128;-79
2023/09/07 11:40:45;;;;;;;15.13;7.72;;;23.20;99.90;;;;;;5092446;28;20020;-80
2023/09/07 11:43:12;;;;;;;15.60;7.78;;;23.30;99.90;;;;;;5091980;28;20130;-80
2023/09/07 11:45:39;;;;;;;16.77;8.60;;;23.20;99.90;;;;;;5092692;28;20051;-80
2023/09/07 11:48:05;;;;;;;17.85;8.00;;;23.30;99.90;;;;;;5092356;28;20111;-79
2023/09/07 11:50:32;;;;;;;12.43;7.28;;;23.30;99.90;;;;;;5092270;28;20127;-78
2023/09/07 11:52:59;;;;;;;12.10;7.22;;;23.30;99.90;;;;;;5106784;28;20051;-78
2023/09/07 11:55:25;;;;;;;17.33;7.53;;;23.40;99.90;;;;;;5092268;28;20104;-80
2023/09/07 11:57:51;;;;;;;17.10;7.82;;;23.40;99.90;;;;;;5092189;28;20028;-79
2023/09/07 12:00:17;;;;;;;15.60;8.07;;;23.40;99.90;;;;;;5091834;28;20027;-79
2023/09/07 12:02:43;;;;;;;17.83;7.57;;;23.50;99.90;;;;;;5073945;28;20035;-79
2023/09/07 12:05:09;;;;;;;24.30;8.40;;;23.60;99.90;;;;;;5091949;28;20412;-79
2023/09/07 12:07:38;;;;;;;19.15;7.88;;;23.60;99.90;;;;;;5092319;28;20032;-80
2023/09/07 12:10:05;;;;;;;15.07;7.28;;;23.60;99.90;;;;;;5091665;28;20027;-79
2023/09/07 12:12:30;;;;;;;23.20;8.38;;;23.50;99.90;;;;;;5092692;28;20028;-79
2023/09/07 12:14:56;;;;;;;19.60;8.18;;;23.40;99.90;;;;;;5092188;28;20487;-80
2023/09/07 12:17:22;;;;;;;21.63;8.35;;;23.40;99.90;;;;;;5091701;28;20024;-80
2023/09/07 12:19:50;;;;;;;14.63;7.85;;;23.40;99.90;;;;;;5092195;28;20385;-81
2023/09/07 12:22:16;;;;;;;15.57;7.78;;;23.60;99.90;;;;;;5092028;28;20390;-81
2023/09/07 12:24:41;;;;;;;19.73;8.38;;;23.60;99.90;;;;;;5092190;28;20071;-80
2023/09/07 12:27:07;;;;;;;24.67;8.82;;;23.60;99.90;;;;;;5091710;28;20165;-79
2023/09/07 12:29:33;;;;;;;23.75;9.10;;;23.70;99.90;;;;;;5092611;28;20036;-80
2023/09/07 12:31:58;;;;;;;16.73;8.63;;;23.80;99.90;;;;;;5092071;28;20028;-80
2023/09/07 12:34:25;;;;;;;27.75;9.10;;;23.90;99.90;;;;;;5106964;28;20081;-77
2023/09/07 12:36:50;;;;;;;19.02;8.73;;;23.90;99.90;;;;;;5092140;28;20475;-79
2023/09/07 12:39:17;;;;;;;18.42;7.90;;;24.10;99.90;;;;;;5091376;28;20048;-78